createdAt,value
2023-05-20T00:01:50.998Z,9.55
2023-05-20T00:04:17.816Z,9.54
2023-05-20T00:06:44.862Z,9.50
2023-05-20T00:09:11.461Z,9.53
2023-05-20T00:11:38.410Z,9.54
2023-05-20T00:14:05.123Z,9.52
2023-05-20T00:16:31.934Z,9.53
2023-05-20T00:18:58.662Z,9.56
2023-05-20T00:21:25.426Z,9.56
2023-05-20T00:23:52.087Z,9.54
2023-05-20T00:26:19.232Z,9.50
2023-05-20T00:28:52.186Z,9.49
2023-05-20T00:31:18.913Z,9.43
2023-05-20T00:33:45.723Z,9.41
2023-05-20T00:36:12.546Z,9.38
2023-05-20T00:38:39.495Z,9.36
2023-05-20T00:41:06.213Z,9.22
2023-05-20T00:43:32.859Z,9.15
2023-05-20T00:46:00.698Z,9.05
2023-05-20T00:48:32.794Z,9.04
2023-05-20T00:50:59.486Z,9.01
2023-05-20T00:53:26.248Z,8.97
2023-05-20T00:55:52.952Z,8.78
2023-05-20T00:58:19.669Z,8.68
2023-05-20T01:00:46.741Z,8.60
2023-05-20T01:03:13.534Z,8.47
2023-05-20T01:05:42.248Z,8.44
2023-05-20T01:08:09.525Z,8.30
2023-05-20T01:10:39.758Z,8.32
2023-05-20T01:13:10.192Z,8.32
2023-05-20T01:15:38.538Z,8.29
2023-05-20T01:18:08.911Z,8.34
2023-05-20T01:20:37.930Z,8.32
2023-05-20T01:23:04.560Z,8.25
2023-05-20T01:25:31.370Z,8.29
2023-05-20T01:27:58.230Z,8.22
2023-05-20T01:30:31.183Z,8.16
2023-05-20T01:33:01.860Z,8.23
2023-05-20T01:35:30.443Z,8.22
2023-05-20T01:37:58.718Z,8.12
2023-05-20T01:40:26.195Z,8.12
2023-05-20T01:42:55.138Z,8.06
2023-05-20T01:45:24.479Z,8.04
2023-05-20T01:47:51.262Z,8.03
2023-05-20T01:50:18.179Z,8.00
2023-05-20T01:52:44.985Z,8.00
2023-05-20T01:55:11.748Z,7.99
2023-05-20T01:57:38.448Z,7.96
2023-05-20T02:00:06.913Z,7.96
2023-05-20T02:02:40.147Z,7.94
2023-05-20T02:05:10.332Z,7.94
2023-05-20T02:07:37.151Z,7.95
2023-05-20T02:10:04.352Z,8.00
2023-05-20T02:12:31.188Z,8.08
2023-05-20T02:14:57.877Z,8.11
2023-05-20T02:17:24.570Z,8.17
2023-05-20T02:19:51.485Z,8.23
2023-05-20T02:22:18.464Z,8.27
2023-05-20T02:24:45.133Z,8.34
2023-05-20T02:27:11.975Z,8.39
2023-05-20T02:29:38.638Z,8.45
2023-05-20T02:32:05.760Z,8.43
2023-05-20T02:34:32.965Z,8.53
2023-05-20T02:36:59.843Z,8.59
2023-05-20T02:39:28.461Z,8.56
2023-05-20T02:41:55.324Z,8.64
2023-05-20T02:44:21.965Z,8.69
2023-05-20T02:46:48.681Z,8.78
2023-05-20T02:49:15.562Z,8.84
2023-05-20T02:51:42.370Z,8.86
2023-05-20T02:54:09.022Z,8.89
2023-05-20T02:56:35.757Z,8.93
2023-05-20T02:59:04.806Z,9.00
2023-05-20T03:01:33.883Z,9.01
2023-05-20T03:04:00.709Z,9.07
2023-05-20T03:06:27.608Z,9.09
2023-05-20T03:08:54.723Z,9.14
2023-05-20T03:11:21.938Z,9.22
2023-05-20T03:13:48.968Z,9.32
2023-05-20T03:16:17.288Z,9.41
2023-05-20T03:18:44.728Z,9.48
2023-05-20T03:21:11.677Z,9.53
2023-05-20T03:23:38.396Z,9.55
2023-05-20T03:26:06.850Z,9.60
2023-05-20T03:28:33.882Z,9.66
2023-05-20T03:31:02.581Z,9.59
2023-05-20T03:33:31.499Z,9.66
2023-05-20T03:35:58.541Z,9.66
2023-05-20T03:38:25.303Z,9.70
2023-05-20T03:40:52.067Z,9.66
2023-05-20T03:43:18.816Z,9.68
2023-05-20T03:45:45.636Z,9.74
2023-05-20T03:48:13.912Z,9.80
2023-05-20T03:50:40.773Z,9.73
2023-05-20T03:53:07.547Z,9.71
2023-05-20T03:55:39.545Z,9.74
2023-05-20T03:58:06.934Z,9.78
2023-05-20T04:00:34.035Z,9.77
2023-05-20T04:03:01.432Z,9.76
2023-05-20T04:05:28.304Z,9.81
2023-05-20T04:07:57.490Z,9.85
2023-05-20T04:10:25.056Z,9.91
2023-05-20T04:12:52.540Z,9.92
2023-05-20T04:15:20.223Z,9.91
2023-05-20T04:17:53.168Z,9.98
2023-05-20T04:20:20.073Z,10.03
2023-05-20T04:22:48.317Z,10.08
2023-05-20T04:25:15.236Z,10.17
2023-05-20T04:27:41.921Z,10.26
2023-05-20T04:30:10.520Z,10.30
2023-05-20T04:32:40.140Z,10.37
2023-05-20T04:35:12.074Z,10.52
2023-05-20T04:37:42.510Z,10.56
2023-05-20T04:40:12.603Z,10.70
2023-05-20T04:42:39.811Z,10.87
2023-05-20T04:45:08.839Z,10.96
2023-05-20T04:47:38.955Z,11.01
2023-05-20T04:50:13.634Z,11.13
2023-05-20T04:52:45.487Z,11.23
2023-05-20T04:55:12.601Z,11.37
2023-05-20T04:57:42.272Z,11.39
2023-05-20T05:00:11.276Z,11.47
2023-05-20T05:02:39.071Z,11.53
2023-05-20T05:05:06.791Z,11.45
2023-05-20T05:07:33.797Z,11.39
2023-05-20T05:10:01.134Z,11.36
2023-05-20T05:12:30.198Z,11.31
2023-05-20T05:14:58.862Z,11.27
2023-05-20T05:17:28.837Z,11.19
2023-05-20T05:19:57.271Z,11.25
2023-05-20T05:22:24.563Z,11.30
2023-05-20T05:24:52.344Z,11.36
2023-05-20T05:27:19.094Z,11.42
2023-05-20T05:29:45.828Z,11.53
2023-05-20T05:32:12.721Z,11.67
2023-05-20T05:34:39.479Z,11.83
2023-05-20T05:37:06.326Z,11.95
2023-05-20T05:39:34.562Z,12.05
2023-05-20T05:42:01.411Z,12.15
2023-05-20T05:44:28.322Z,12.04
2023-05-20T05:46:55.334Z,12.09
2023-05-20T05:49:22.280Z,12.27
2023-05-20T05:51:50.655Z,12.41
2023-05-20T05:54:17.579Z,12.48
2023-05-20T05:56:44.388Z,12.52
2023-05-20T05:59:11.237Z,12.53
2023-05-20T06:01:38.142Z,12.65
2023-05-20T06:04:05.200Z,12.79
2023-05-20T06:06:32.196Z,12.88
2023-05-20T06:08:58.836Z,13.04
2023-05-20T06:11:26.609Z,13.13
2023-05-20T06:13:53.393Z,13.22
2023-05-20T06:16:20.208Z,13.20
2023-05-20T06:18:47.264Z,13.27
2023-05-20T06:21:14.090Z,13.31
2023-05-20T06:23:40.914Z,13.44
2023-05-20T06:26:11.182Z,13.58
2023-05-20T06:28:39.463Z,13.89
2023-05-20T06:31:06.476Z,14.03
2023-05-20T06:33:34.958Z,14.06
2023-05-20T06:36:07.004Z,14.26
2023-05-20T06:38:33.785Z,14.53
2023-05-20T06:41:01.374Z,14.61
2023-05-20T06:43:29.178Z,14.77
2023-05-20T06:46:09.559Z,15.24
2023-05-20T06:48:39.461Z,15.56
2023-05-20T06:51:10.305Z,15.85
2023-05-20T06:53:38.513Z,15.90
2023-05-20T06:56:05.897Z,15.82
2023-05-20T06:58:32.839Z,15.72
2023-05-20T07:00:59.730Z,15.62
2023-05-20T07:03:26.907Z,15.43
2023-05-20T07:05:53.733Z,15.26
2023-05-20T07:08:21.276Z,15.27
2023-05-20T07:10:48.306Z,15.54
2023-05-20T07:13:18.716Z,15.63
2023-05-20T07:15:48.687Z,15.47
2023-05-20T07:18:16.377Z,15.42
2023-05-20T07:20:45.842Z,15.27
2023-05-20T07:23:25.049Z,15.28
2023-05-20T07:25:54.317Z,15.39
2023-05-20T07:28:22.718Z,15.27
2023-05-20T07:30:50.536Z,15.49
2023-05-20T07:33:23.702Z,15.74
2023-05-20T07:35:50.457Z,15.97
2023-05-20T07:38:17.330Z,15.99
2023-05-20T07:40:46.535Z,15.79
2023-05-20T07:43:13.384Z,15.70
2023-05-20T07:45:40.429Z,15.46
2023-05-20T07:48:08.960Z,15.46
2023-05-20T07:50:36.733Z,15.76
2023-05-20T07:53:04.282Z,15.83
2023-05-20T07:55:37.107Z,15.96
2023-05-20T07:58:05.387Z,16.30
2023-05-20T08:00:34.322Z,16.34
2023-05-20T08:03:04.345Z,16.12
2023-05-20T08:05:42.227Z,16.19
2023-05-20T08:08:10.567Z,16.11
2023-05-20T08:10:49.033Z,16.58
2023-05-20T08:13:15.801Z,17.10
2023-05-20T08:15:42.682Z,17.24
2023-05-20T08:18:09.735Z,17.48
2023-05-20T08:20:36.669Z,17.71
2023-05-20T08:23:03.405Z,17.78
2023-05-20T08:25:30.855Z,17.37
2023-05-20T08:27:58.204Z,17.47
2023-05-20T08:30:25.514Z,17.37
2023-05-20T08:32:53.002Z,17.37
2023-05-20T08:35:23.164Z,17.55
2023-05-20T08:37:51.355Z,17.67
2023-05-20T08:40:18.149Z,17.84
2023-05-20T08:42:44.945Z,17.71
2023-05-20T08:45:16.358Z,17.95
2023-05-20T08:47:43.935Z,18.23
2023-05-20T08:50:12.288Z,18.05
2023-05-20T08:52:46.583Z,18.17
2023-05-20T08:55:26.832Z,18.12
2023-05-20T08:57:54.686Z,17.96
2023-05-20T09:00:27.192Z,18.30
2023-05-20T09:02:54.885Z,18.53
2023-05-20T09:05:22.778Z,18.23
2023-05-20T09:07:49.543Z,18.29
2023-05-20T09:10:16.591Z,17.89
2023-05-20T09:12:43.512Z,17.89
2023-05-20T09:15:10.452Z,18.17
2023-05-20T09:17:38.276Z,18.21
2023-05-20T09:20:09.896Z,17.70
2023-05-20T09:22:37.654Z,18.06
2023-05-20T09:25:05.223Z,18.14
2023-05-20T09:27:32.009Z,18.39
2023-05-20T09:29:58.752Z,18.85
2023-05-20T09:32:28.271Z,18.87
2023-05-20T09:34:55.040Z,18.66
2023-05-20T09:37:22.193Z,18.68
2023-05-20T09:40:05.920Z,18.75
2023-05-20T09:42:41.584Z,18.86
2023-05-20T09:45:09.541Z,18.44
2023-05-20T09:47:41.001Z,18.39
2023-05-20T09:50:09.165Z,17.86
2023-05-20T09:52:37.398Z,17.73
2023-05-20T09:55:05.816Z,18.01
2023-05-20T09:57:36.578Z,18.61
2023-05-20T10:00:08.674Z,18.90
2023-05-20T10:02:46.151Z,19.53
2023-05-20T10:05:20.442Z,19.71
2023-05-20T10:08:11.844Z,19.94
2023-05-20T10:10:48.505Z,20.22
2023-05-20T10:13:38.398Z,19.85
2023-05-20T10:16:18.036Z,19.82
2023-05-20T10:18:56.487Z,19.29
2023-05-20T10:21:24.649Z,19.20
2023-05-20T10:23:51.958Z,19.28
2023-05-20T10:26:19.152Z,19.63
2023-05-20T10:28:46.780Z,19.79
2023-05-20T10:31:24.235Z,20.32
2023-05-20T10:33:53.216Z,20.56
2023-05-20T10:36:27.854Z,20.74
2023-05-20T10:38:59.232Z,20.62
2023-05-20T10:41:27.404Z,20.88
2023-05-20T10:44:03.450Z,21.04
2023-05-20T10:46:41.946Z,20.57
2023-05-20T10:49:25.381Z,20.88
2023-05-20T10:51:54.371Z,20.89
2023-05-20T10:54:22.071Z,20.69
2023-05-20T10:56:55.464Z,20.43
2023-05-20T10:59:22.464Z,20.42
2023-05-20T11:01:49.341Z,20.54
2023-05-20T11:04:17.459Z,20.49
2023-05-20T11:06:53.541Z,20.47
2023-05-20T11:09:20.270Z,20.60
2023-05-20T11:11:46.961Z,20.66
2023-05-20T11:14:15.118Z,20.47
2023-05-20T11:16:42.499Z,20.20
2023-05-20T11:19:14.366Z,20.27
2023-05-20T11:21:45.172Z,19.85
2023-05-20T11:24:12.848Z,20.16
2023-05-20T11:26:40.221Z,20.19
2023-05-20T11:29:07.771Z,19.80
2023-05-20T11:31:34.487Z,19.83
2023-05-20T11:34:01.665Z,20.18
2023-05-20T11:36:28.964Z,20.30
2023-05-20T11:38:57.848Z,20.69
2023-05-20T11:41:25.434Z,21.05
2023-05-20T11:43:58.063Z,21.42
2023-05-20T11:46:25.055Z,21.64
2023-05-20T11:48:54.016Z,22.11
2023-05-20T11:51:39.508Z,22.10
2023-05-20T11:54:08.001Z,21.48
2023-05-20T11:56:39.021Z,21.19
2023-05-20T11:59:06.615Z,20.99
2023-05-20T12:01:37.737Z,21.37
2023-05-20T12:04:08.570Z,21.80
2023-05-20T12:06:37.380Z,22.28
2023-05-20T12:09:07.081Z,22.08
2023-05-20T12:11:38.012Z,21.70
2023-05-20T12:14:04.698Z,21.50
2023-05-20T12:16:33.196Z,21.60
2023-05-20T12:19:00.670Z,21.84
2023-05-20T12:21:29.012Z,22.29
2023-05-20T12:23:58.738Z,21.98
2023-05-20T12:26:26.859Z,22.10
2023-05-20T12:28:53.999Z,22.35
2023-05-20T12:31:21.120Z,22.59
2023-05-20T12:33:47.858Z,21.92
2023-05-20T12:36:14.945Z,21.83
2023-05-20T12:38:41.771Z,22.05
2023-05-20T12:41:08.561Z,21.86
2023-05-20T12:43:36.982Z,22.42
2023-05-20T12:46:04.293Z,22.48
2023-05-20T12:48:30.946Z,22.72
2023-05-20T12:50:57.622Z,22.96
2023-05-20T12:53:24.265Z,23.46
2023-05-20T12:55:51.056Z,23.47
2023-05-20T12:58:17.782Z,23.49
2023-05-20T13:00:44.551Z,23.66
2023-05-20T13:03:11.435Z,23.13
2023-05-20T13:05:38.408Z,23.23
2023-05-20T13:08:05.389Z,23.17
2023-05-20T13:10:33.194Z,23.26
2023-05-20T13:13:00.093Z,23.45
2023-05-20T13:15:26.830Z,22.84
2023-05-20T13:17:54.361Z,22.53
2023-05-20T13:20:21.532Z,22.29
2023-05-20T13:22:50.178Z,22.74
2023-05-20T13:25:17.101Z,23.22
2023-05-20T13:27:43.948Z,22.64
2023-05-20T13:30:10.978Z,21.75
2023-05-20T13:32:37.998Z,21.59
2023-05-20T13:35:05.125Z,21.93
2023-05-20T13:37:31.939Z,22.43
2023-05-20T13:39:58.673Z,22.98
2023-05-20T13:42:25.388Z,22.97
2023-05-20T13:44:52.116Z,22.24
2023-05-20T13:47:18.915Z,22.26
2023-05-20T13:49:45.632Z,21.62
2023-05-20T13:52:12.339Z,21.50
2023-05-20T13:54:39.081Z,21.26
2023-05-20T13:57:08.105Z,20.99
2023-05-20T13:59:35.165Z,20.69
2023-05-20T14:02:02.511Z,20.52
2023-05-20T14:04:31.182Z,20.90
2023-05-20T14:06:59.304Z,21.21
2023-05-20T14:09:26.390Z,21.63
2023-05-20T14:11:53.233Z,21.82
2023-05-20T14:14:19.955Z,22.06
2023-05-20T14:16:47.124Z,21.95
2023-05-20T14:19:13.822Z,22.07
2023-05-20T14:21:40.709Z,21.73
2023-05-20T14:24:07.365Z,21.77
2023-05-20T14:26:34.664Z,21.70
2023-05-20T14:29:01.805Z,21.62
2023-05-20T14:31:28.739Z,21.62
2023-05-20T14:33:55.466Z,21.97
2023-05-20T14:36:22.404Z,22.49
2023-05-20T14:38:49.749Z,23.04
2023-05-20T14:41:16.730Z,23.44
2023-05-20T14:43:43.526Z,24.15
2023-05-20T14:46:10.530Z,24.50
2023-05-20T14:48:37.337Z,24.49
2023-05-20T14:51:04.238Z,24.08
2023-05-20T14:53:30.988Z,23.53
2023-05-20T14:55:57.736Z,23.26
2023-05-20T14:58:24.517Z,23.37
2023-05-20T15:00:53.131Z,23.59
2023-05-20T15:03:20.398Z,23.08
2023-05-20T15:05:47.237Z,23.38
2023-05-20T15:08:13.986Z,23.52
2023-05-20T15:10:40.782Z,23.66
2023-05-20T15:13:07.669Z,23.65
2023-05-20T15:15:34.440Z,23.68
2023-05-20T15:18:01.489Z,23.46
2023-05-20T15:20:28.282Z,23.14
2023-05-20T15:22:54.996Z,22.88
2023-05-20T15:25:21.708Z,22.99
2023-05-20T15:27:48.365Z,22.29
2023-05-20T15:30:15.658Z,22.29
2023-05-20T15:32:42.898Z,22.04
2023-05-20T15:35:09.896Z,21.99
2023-05-20T15:37:36.518Z,22.39
2023-05-20T15:40:04.492Z,22.38
2023-05-20T15:42:31.828Z,22.46
2023-05-20T15:44:58.610Z,22.55
2023-05-20T15:47:25.389Z,22.68
2023-05-20T15:49:52.243Z,23.10
2023-05-20T15:52:18.861Z,22.76
2023-05-20T15:54:45.573Z,22.35
2023-05-20T15:57:12.171Z,22.48
2023-05-20T15:59:38.958Z,23.00
2023-05-20T16:02:06.161Z,23.08
2023-05-20T16:04:33.134Z,23.33
2023-05-20T16:07:00.165Z,23.76
2023-05-20T16:09:26.928Z,24.23
2023-05-20T16:11:53.549Z,24.01
2023-05-20T16:14:20.519Z,24.08
2023-05-20T16:16:47.325Z,23.57
2023-05-20T16:19:14.072Z,23.81
2023-05-20T16:21:40.735Z,23.97
2023-05-20T16:24:07.401Z,23.27
2023-05-20T16:26:34.062Z,22.77
2023-05-20T16:29:01.253Z,21.85
2023-05-20T16:31:28.205Z,21.49
2023-05-20T16:33:55.031Z,21.18
2023-05-20T16:36:22.014Z,21.11
2023-05-20T16:38:48.772Z,20.92
2023-05-20T16:41:16.448Z,20.83
2023-05-20T16:43:43.244Z,20.82
2023-05-20T16:46:10.031Z,20.99
2023-05-20T16:48:36.781Z,21.17
2023-05-20T16:51:03.451Z,21.14
2023-05-20T16:53:30.172Z,21.17
2023-05-20T16:55:56.787Z,21.21
2023-05-20T16:58:23.544Z,21.07
2023-05-20T17:00:50.338Z,20.72
2023-05-20T17:03:18.131Z,20.58
2023-05-20T17:05:44.922Z,20.65
2023-05-20T17:08:11.668Z,20.53
2023-05-20T17:10:38.388Z,20.34
2023-05-20T17:13:05.356Z,20.13
2023-05-20T17:15:33.033Z,20.20
2023-05-20T17:17:59.766Z,20.25
2023-05-20T17:20:26.604Z,20.02
2023-05-20T17:22:53.305Z,19.94
2023-05-20T17:25:20.124Z,19.84
2023-05-20T17:27:46.847Z,19.66
2023-05-20T17:30:13.600Z,19.52
2023-05-20T17:32:40.738Z,19.33
2023-05-20T17:35:08.316Z,19.25
2023-05-20T17:37:35.093Z,19.19
2023-05-20T17:40:01.867Z,19.19
2023-05-20T17:42:28.541Z,19.03
2023-05-20T17:44:55.607Z,18.97
2023-05-20T17:47:22.312Z,19.00
2023-05-20T17:49:49.042Z,18.96
2023-05-20T17:52:15.911Z,18.87
2023-05-20T17:54:42.607Z,18.77
2023-05-20T17:57:09.326Z,18.81
2023-05-20T17:59:41.617Z,18.73
2023-05-20T18:02:08.619Z,18.69
2023-05-20T18:04:35.481Z,18.70
2023-05-20T18:07:03.956Z,18.69
2023-05-20T18:09:30.685Z,18.54
2023-05-20T18:11:57.415Z,18.50
2023-05-20T18:14:26.458Z,18.52
2023-05-20T18:16:54.719Z,18.50
2023-05-20T18:19:21.619Z,18.46
2023-05-20T18:21:48.488Z,18.45
2023-05-20T18:24:16.691Z,18.41
2023-05-20T18:26:43.560Z,18.33
2023-05-20T18:29:12.404Z,18.29
2023-05-20T18:31:40.378Z,18.22
2023-05-20T18:34:08.096Z,18.15
2023-05-20T18:36:34.975Z,18.04
2023-05-20T18:39:01.659Z,17.95
2023-05-20T18:41:43.185Z,17.87
2023-05-20T18:44:17.246Z,17.73
2023-05-20T18:46:43.912Z,17.64
2023-05-20T18:49:10.718Z,17.54
2023-05-20T18:51:40.872Z,17.31
2023-05-20T18:54:07.752Z,17.19
2023-05-20T18:56:34.678Z,17.15
2023-05-20T18:59:01.654Z,17.01
2023-05-20T19:01:28.348Z,16.82
2023-05-20T19:03:55.064Z,16.67
2023-05-20T19:06:22.082Z,16.57
2023-05-20T19:08:49.679Z,16.42
2023-05-20T19:11:16.449Z,16.40
2023-05-20T19:13:43.274Z,16.33
2023-05-20T19:16:09.993Z,16.15
2023-05-20T19:18:36.916Z,16.08
2023-05-20T19:21:03.784Z,15.91
2023-05-20T19:23:30.580Z,15.85
2023-05-20T19:25:57.284Z,15.67
2023-05-20T19:28:24.016Z,15.55
2023-05-20T19:30:50.966Z,15.51
2023-05-20T19:33:18.269Z,15.49
2023-05-20T19:35:45.030Z,15.46
2023-05-20T19:38:12.464Z,15.33
2023-05-20T19:40:39.161Z,15.25
2023-05-20T19:43:05.889Z,15.23
2023-05-20T19:45:32.553Z,15.11
2023-05-20T19:47:59.387Z,15.02
2023-05-20T19:50:26.466Z,14.91
2023-05-20T19:52:53.275Z,14.88
2023-05-20T19:55:19.925Z,14.73
2023-05-20T19:57:53.027Z,14.62
2023-05-20T20:00:21.334Z,14.56
2023-05-20T20:02:48.817Z,14.57
2023-05-20T20:05:16.131Z,14.45
2023-05-20T20:07:43.012Z,14.40
2023-05-20T20:10:10.745Z,14.35
2023-05-20T20:12:37.535Z,14.30
2023-05-20T20:15:04.469Z,14.27
2023-05-20T20:17:33.463Z,14.20
2023-05-20T20:20:00.681Z,14.20
2023-05-20T20:22:27.438Z,14.09
2023-05-20T20:24:54.095Z,14.04
2023-05-20T20:27:23.835Z,14.03
2023-05-20T20:29:51.309Z,13.98
2023-05-20T20:32:18.065Z,13.97
2023-05-20T20:34:45.991Z,13.91
2023-05-20T20:37:14.966Z,13.78
2023-05-20T20:39:42.117Z,13.82
2023-05-20T20:42:08.836Z,13.79
2023-05-20T20:44:35.506Z,13.68
2023-05-20T20:47:04.102Z,13.62
2023-05-20T20:49:32.214Z,13.65
2023-05-20T20:51:59.147Z,13.62
2023-05-20T20:54:26.478Z,13.50
2023-05-20T20:56:56.642Z,13.52
2023-05-20T20:59:26.512Z,13.45
2023-05-20T21:01:53.829Z,13.37
2023-05-20T21:04:20.916Z,13.34
2023-05-20T21:06:47.758Z,13.34
2023-05-20T21:09:14.777Z,13.26
2023-05-20T21:11:45.935Z,13.29
2023-05-20T21:14:13.067Z,13.23
2023-05-20T21:16:39.872Z,13.16
2023-05-20T21:19:06.727Z,13.11
2023-05-20T21:21:33.558Z,13.03
2023-05-20T21:24:00.311Z,13.08
2023-05-20T21:26:27.072Z,13.06
2023-05-20T21:28:53.870Z,13.09
2023-05-20T21:31:20.737Z,13.04
2023-05-20T21:33:47.508Z,12.95
2023-05-20T21:36:14.276Z,12.96
2023-05-20T21:38:41.102Z,12.89
2023-05-20T21:41:08.331Z,12.88
2023-05-20T21:43:36.009Z,12.87
2023-05-20T21:46:03.057Z,12.84
2023-05-20T21:48:29.790Z,12.83
2023-05-20T21:50:56.655Z,12.85
2023-05-20T21:53:23.257Z,12.79
2023-05-20T21:55:50.189Z,12.82
2023-05-20T21:58:16.855Z,12.84
2023-05-20T22:00:43.688Z,12.71
2023-05-20T22:03:11.849Z,12.77
2023-05-20T22:05:38.734Z,12.67
2023-05-20T22:08:05.681Z,12.70
2023-05-20T22:10:34.169Z,12.62
2023-05-20T22:13:02.126Z,12.61
2023-05-20T22:15:29.080Z,12.61
2023-05-20T22:17:55.796Z,12.53
2023-05-20T22:20:22.714Z,12.53
2023-05-20T22:22:49.385Z,12.39
2023-05-20T22:25:17.285Z,12.37
2023-05-20T22:27:44.047Z,12.32
2023-05-20T22:30:11.841Z,12.27
2023-05-20T22:32:39.134Z,12.26
2023-05-20T22:35:06.539Z,12.26
2023-05-20T22:37:33.508Z,12.30
2023-05-20T22:40:00.223Z,12.24
2023-05-20T22:42:26.912Z,12.27
2023-05-20T22:44:53.648Z,12.22
2023-05-20T22:47:20.351Z,12.17
2023-05-20T22:49:47.135Z,12.11
2023-05-20T22:52:14.422Z,12.09
2023-05-20T22:54:41.305Z,12.13
2023-05-20T22:57:08.285Z,12.09
2023-05-20T22:59:36.661Z,12.07
2023-05-20T23:02:04.534Z,12.11
2023-05-20T23:04:31.344Z,12.09
2023-05-20T23:06:59.460Z,12.02
2023-05-20T23:09:26.484Z,11.97
2023-05-20T23:11:53.292Z,11.96
2023-05-20T23:14:20.231Z,11.95
2023-05-20T23:16:47.030Z,11.99
2023-05-20T23:19:13.809Z,11.97
2023-05-20T23:21:40.655Z,12.01
2023-05-20T23:24:07.425Z,11.94
2023-05-20T23:26:37.630Z,11.93
2023-05-20T23:29:05.230Z,11.85
2023-05-20T23:31:32.977Z,11.79
2023-05-20T23:34:01.070Z,11.72
2023-05-20T23:36:29.057Z,11.80
2023-05-20T23:38:56.642Z,11.82
2023-05-20T23:41:23.654Z,11.74
2023-05-20T23:43:50.779Z,11.74
2023-05-20T23:46:18.662Z,11.71
2023-05-20T23:48:48.234Z,11.68
2023-05-20T23:51:16.362Z,11.70
2023-05-20T23:53:44.083Z,11.70
2023-05-20T23:56:10.782Z,11.65
2023-05-20T23:58:37.533Z,11.61
